sensor_id;sensor_type;location;lat;lon;timestamp;P1;durP1;ratioP1;P2;durP2;ratioP2
27025;SDS011;14565;48.626;8.978;2022-11-15T00:01:35;4.13;;;1.95;;
27025;SDS011;14565;48.626;8.978;2022-11-15T00:04:04;2.42;;;1.77;;
27025;SDS011;14565;48.626;8.978;2022-11-15T00:06:30;4.82;;;2.45;;
27025;SDS011;14565;48.626;8.978;2022-11-15T00:08:58;3.13;;;2.00;;
27025;SDS011;14565;48.626;8.978;2022-11-15T00:11:25;3.70;;;2.22;;
27025;SDS011;14565;48.626;8.978;2022-11-15T00:13:51;2.60;;;2.20;;
27025;SDS011;14565;48.626;8.978;2022-11-15T00:16:20;5.93;;;2.80;;
27025;SDS011;14565;48.626;8.978;2022-11-15T00:18:45;4.10;;;2.40;;
27025;SDS011;14565;48.626;8.978;2022-11-15T00:21:11;4.72;;;2.25;;
27025;SDS011;14565;48.626;8.978;2022-11-15T00:23:38;4.45;;;2.45;;
27025;SDS011;14565;48.626;8.978;2022-11-15T00:26:05;3.80;;;2.10;;
27025;SDS011;14565;48.626;8.978;2022-11-15T00:28:31;5.15;;;2.53;;
27025;SDS011;14565;48.626;8.978;2022-11-15T00:31:00;5.15;;;2.42;;
27025;SDS011;14565;48.626;8.978;2022-11-15T00:33:27;5.88;;;2.40;;
27025;SDS011;14565;48.626;8.978;2022-11-15T00:35:53;4.78;;;2.63;;
27025;SDS011;14565;48.626;8.978;2022-11-15T00:38:18;5.28;;;3.00;;
27025;SDS011;14565;48.626;8.978;2022-11-15T00:40:44;8.27;;;3.00;;
27025;SDS011;14565;48.626;8.978;2022-11-15T00:43:10;4.97;;;2.50;;
27025;SDS011;14565;48.626;8.978;2022-11-15T00:45:35;4.30;;;2.75;;
27025;SDS011;14565;48.626;8.978;2022-11-15T00:48:01;4.03;;;3.28;;
27025;SDS011;14565;48.626;8.978;2022-11-15T00:50:27;3.38;;;2.60;;
27025;SDS011;14565;48.626;8.978;2022-11-15T00:52:52;8.75;;;2.92;;
27025;SDS011;14565;48.626;8.978;2022-11-15T00:55:18;4.50;;;2.60;;
27025;SDS011;14565;48.626;8.978;2022-11-15T00:57:44;4.97;;;2.80;;
27025;SDS011;14565;48.626;8.978;2022-11-15T01:00:11;4.47;;;3.05;;
27025;SDS011;14565;48.626;8.978;2022-11-15T01:02:37;5.13;;;2.70;;
27025;SDS011;14565;48.626;8.978;2022-11-15T01:05:03;6.22;;;3.17;;
27025;SDS011;14565;48.626;8.978;2022-11-15T01:07:29;5.05;;;2.90;;
27025;SDS011;14565;48.626;8.978;2022-11-15T01:09:55;5.15;;;2.95;;
27025;SDS011;14565;48.626;8.978;2022-11-15T01:12:20;3.80;;;2.70;;
27025;SDS011;14565;48.626;8.978;2022-11-15T01:14:46;7.03;;;3.03;;
27025;SDS011;14565;48.626;8.978;2022-11-15T01:17:11;6.85;;;2.60;;
27025;SDS011;14565;48.626;8.978;2022-11-15T01:19:37;10.90;;;3.25;;
27025;SDS011;14565;48.626;8.978;2022-11-15T01:22:02;6.10;;;3.20;;
27025;SDS011;14565;48.626;8.978;2022-11-15T01:24:28;5.90;;;2.58;;
27025;SDS011;14565;48.626;8.978;2022-11-15T01:26:54;5.25;;;2.80;;
27025;SDS011;14565;48.626;8.978;2022-11-15T01:29:19;7.03;;;3.05;;
27025;SDS011;14565;48.626;8.978;2022-11-15T01:31:45;4.40;;;2.72;;
27025;SDS011;14565;48.626;8.978;2022-11-15T01:34:12;5.32;;;2.90;;
27025;SDS011;14565;48.626;8.978;2022-11-15T01:36:37;5.68;;;3.03;;
27025;SDS011;14565;48.626;8.978;2022-11-15T01:39:03;4.13;;;2.67;;
27025;SDS011;14565;48.626;8.978;2022-11-15T01:41:30;5.78;;;2.72;;
27025;SDS011;14565;48.626;8.978;2022-11-15T01:44:28;3.75;;;2.80;;
27025;SDS011;14565;48.626;8.978;2022-11-15T01:46:58;9.60;;;3.13;;
27025;SDS011;14565;48.626;8.978;2022-11-15T01:49:30;4.85;;;3.00;;
27025;SDS011;14565;48.626;8.978;2022-11-15T01:51:58;4.97;;;3.03;;
27025;SDS011;14565;48.626;8.978;2022-11-15T01:54:28;5.60;;;2.72;;
27025;SDS011;14565;48.626;8.978;2022-11-15T01:57:05;4.70;;;2.90;;
27025;SDS011;14565;48.626;8.978;2022-11-15T01:59:34;5.22;;;2.78;;
27025;SDS011;14565;48.626;8.978;2022-11-15T02:02:02;3.72;;;2.55;;
27025;SDS011;14565;48.626;8.978;2022-11-15T02:04:29;4.07;;;2.70;;
27025;SDS011;14565;48.626;8.978;2022-11-15T02:07:04;6.28;;;2.13;;
27025;SDS011;14565;48.626;8.978;2022-11-15T02:09:31;4.55;;;1.83;;
27025;SDS011;14565;48.626;8.978;2022-11-15T02:11:57;4.80;;;2.53;;
27025;SDS011;14565;48.626;8.978;2022-11-15T02:14:24;4.72;;;3.25;;
27025;SDS011;14565;48.626;8.978;2022-11-15T02:16:57;7.40;;;3.58;;
27025;SDS011;14565;48.626;8.978;2022-11-15T02:44:39;5.32;;;2.53;;
27025;SDS011;14565;48.626;8.978;2022-11-15T02:47:09;3.53;;;2.35;;
27025;SDS011;14565;48.626;8.978;2022-11-15T02:49:54;4.97;;;2.70;;
27025;SDS011;14565;48.626;8.978;2022-11-15T02:52:23;3.97;;;2.60;;
27025;SDS011;14565;48.626;8.978;2022-11-15T02:54:53;5.20;;;2.47;;
27025;SDS011;14565;48.626;8.978;2022-11-15T02:57:27;4.60;;;2.63;;
27025;SDS011;14565;48.626;8.978;2022-11-15T03:00:04;3.85;;;2.80;;
27025;SDS011;14565;48.626;8.978;2022-11-15T03:02:42;3.58;;;2.53;;
27025;SDS011;14565;48.626;8.978;2022-11-15T03:18:42;7.70;;;3.88;;
27025;SDS011;14565;48.626;8.978;2022-11-15T03:21:12;6.28;;;3.90;;
27025;SDS011;14565;48.626;8.978;2022-11-15T03:26:09;6.03;;;3.45;;
27025;SDS011;14565;48.626;8.978;2022-11-15T03:28:40;5.53;;;3.20;;
27025;SDS011;14565;48.626;8.978;2022-11-15T03:31:13;7.53;;;3.08;;
27025;SDS011;14565;48.626;8.978;2022-11-15T03:33:59;3.40;;;2.40;;
27025;SDS011;14565;48.626;8.978;2022-11-15T03:36:26;3.67;;;2.50;;
27025;SDS011;14565;48.626;8.978;2022-11-15T03:38:53;4.07;;;2.50;;
27025;SDS011;14565;48.626;8.978;2022-11-15T03:41:28;5.95;;;2.30;;
27025;SDS011;14565;48.626;8.978;2022-11-15T03:46:47;7.18;;;2.35;;
27025;SDS011;14565;48.626;8.978;2022-11-15T03:49:46;4.40;;;2.70;;
27025;SDS011;14565;48.626;8.978;2022-11-15T03:52:19;3.80;;;2.50;;
27025;SDS011;14565;48.626;8.978;2022-11-15T03:54:49;4.13;;;2.53;;
27025;SDS011;14565;48.626;8.978;2022-11-15T03:57:17;4.68;;;2.17;;
27025;SDS011;14565;48.626;8.978;2022-11-15T03:59:42;6.82;;;2.33;;
27025;SDS011;14565;48.626;8.978;2022-11-15T04:02:08;3.75;;;2.90;;
27025;SDS011;14565;48.626;8.978;2022-11-15T04:04:34;5.70;;;3.08;;
27025;SDS011;14565;48.626;8.978;2022-11-15T04:06:59;6.57;;;3.30;;
27025;SDS011;14565;48.626;8.978;2022-11-15T04:09:25;6.35;;;3.97;;
27025;SDS011;14565;48.626;8.978;2022-11-15T04:11:51;6.93;;;3.47;;
27025;SDS011;14565;48.626;8.978;2022-11-15T04:14:16;5.47;;;3.00;;
27025;SDS011;14565;48.626;8.978;2022-11-15T04:16:42;5.30;;;2.75;;
27025;SDS011;14565;48.626;8.978;2022-11-15T04:19:08;3.67;;;2.63;;
27025;SDS011;14565;48.626;8.978;2022-11-15T04:21:52;4.13;;;2.78;;
27025;SDS011;14565;48.626;8.978;2022-11-15T04:24:36;6.80;;;3.00;;
27025;SDS011;14565;48.626;8.978;2022-11-15T04:27:01;4.97;;;3.00;;
27025;SDS011;14565;48.626;8.978;2022-11-15T04:29:27;5.13;;;3.08;;
27025;SDS011;14565;48.626;8.978;2022-11-15T04:31:59;4.78;;;3.05;;
27025;SDS011;14565;48.626;8.978;2022-11-15T04:34:24;4.82;;;2.88;;
27025;SDS011;14565;48.626;8.978;2022-11-15T04:36:50;4.28;;;2.95;;
27025;SDS011;14565;48.626;8.978;2022-11-15T04:39:34;5.70;;;3.15;;
27025;SDS011;14565;48.626;8.978;2022-11-15T04:42:00;3.85;;;2.78;;
27025;SDS011;14565;48.626;8.978;2022-11-15T04:44:25;3.53;;;2.72;;
27025;SDS011;14565;48.626;8.978;2022-11-15T04:46:51;5.13;;;2.72;;
27025;SDS011;14565;48.626;8.978;2022-11-15T04:49:16;4.88;;;2.85;;
27025;SDS011;14565;48.626;8.978;2022-11-15T04:51:42;3.58;;;2.53;;
27025;SDS011;14565;48.626;8.978;2022-11-15T04:54:08;5.00;;;2.83;;
27025;SDS011;14565;48.626;8.978;2022-11-15T04:56:33;5.00;;;2.72;;
27025;SDS011;14565;48.626;8.978;2022-11-15T04:58:59;5.47;;;2.20;;
27025;SDS011;14565;48.626;8.978;2022-11-15T05:01:25;3.60;;;2.70;;
27025;SDS011;14565;48.626;8.978;2022-11-15T05:03:50;5.60;;;2.67;;
27025;SDS011;14565;48.626;8.978;2022-11-15T05:06:34;5.78;;;2.70;;
27025;SDS011;14565;48.626;8.978;2022-11-15T05:09:00;5.43;;;2.40;;
27025;SDS011;14565;48.626;8.978;2022-11-15T05:11:26;4.85;;;2.42;;
27025;SDS011;14565;48.626;8.978;2022-11-15T05:13:52;4.85;;;2.50;;
27025;SDS011;14565;48.626;8.978;2022-11-15T05:16:18;4.40;;;2.15;;
27025;SDS011;14565;48.626;8.978;2022-11-15T05:18:44;5.68;;;2.50;;
27025;SDS011;14565;48.626;8.978;2022-11-15T05:21:10;5.43;;;2.22;;
27025;SDS011;14565;48.626;8.978;2022-11-15T05:23:38;3.47;;;2.03;;
27025;SDS011;14565;48.626;8.978;2022-11-15T05:26:05;3.10;;;2.20;;
27025;SDS011;14565;48.626;8.978;2022-11-15T05:28:32;9.93;;;3.78;;
27025;SDS011;14565;48.626;8.978;2022-11-15T05:31:11;6.45;;;3.92;;
27025;SDS011;14565;48.626;8.978;2022-11-15T05:33:39;7.65;;;3.35;;
27025;SDS011;14565;48.626;8.978;2022-11-15T05:36:21;4.03;;;2.83;;
27025;SDS011;14565;48.626;8.978;2022-11-15T05:38:50;3.20;;;2.55;;
27025;SDS011;14565;48.626;8.978;2022-11-15T05:41:17;7.28;;;4.70;;
27025;SDS011;14565;48.626;8.978;2022-11-15T05:43:45;9.15;;;6.63;;
27025;SDS011;14565;48.626;8.978;2022-11-15T05:46:13;13.55;;;7.82;;
27025;SDS011;14565;48.626;8.978;2022-11-15T05:48:40;10.60;;;7.22;;
27025;SDS011;14565;48.626;8.978;2022-11-15T05:51:09;7.32;;;5.43;;
27025;SDS011;14565;48.626;8.978;2022-11-15T05:53:37;6.68;;;4.40;;
27025;SDS011;14565;48.626;8.978;2022-11-15T05:56:03;9.27;;;6.10;;
27025;SDS011;14565;48.626;8.978;2022-11-15T05:58:31;10.20;;;5.53;;
27025;SDS011;14565;48.626;8.978;2022-11-15T06:00:57;9.10;;;5.07;;
27025;SDS011;14565;48.626;8.978;2022-11-15T06:03:25;9.83;;;5.20;;
27025;SDS011;14565;48.626;8.978;2022-11-15T06:05:50;13.05;;;7.60;;
27025;SDS011;14565;48.626;8.978;2022-11-15T06:08:16;14.05;;;6.72;;
27025;SDS011;14565;48.626;8.978;2022-11-15T06:10:41;15.32;;;9.88;;
27025;SDS011;14565;48.626;8.978;2022-11-15T06:13:07;24.08;;;14.45;;
27025;SDS011;14565;48.626;8.978;2022-11-15T06:15:33;16.77;;;11.05;;
27025;SDS011;14565;48.626;8.978;2022-11-15T06:17:59;36.40;;;24.75;;
27025;SDS011;14565;48.626;8.978;2022-11-15T06:20:26;32.22;;;23.33;;
27025;SDS011;14565;48.626;8.978;2022-11-15T06:23:02;18.93;;;11.77;;
27025;SDS011;14565;48.626;8.978;2022-11-15T06:25:29;15.55;;;8.82;;
27025;SDS011;14565;48.626;8.978;2022-11-15T06:27:56;12.82;;;7.30;;
27025;SDS011;14565;48.626;8.978;2022-11-15T06:30:23;10.82;;;6.55;;
27025;SDS011;14565;48.626;8.978;2022-11-15T06:32:49;9.35;;;6.22;;
27025;SDS011;14565;48.626;8.978;2022-11-15T06:35:15;10.85;;;7.30;;
27025;SDS011;14565;48.626;8.978;2022-11-15T06:37:41;10.75;;;6.35;;
27025;SDS011;14565;48.626;8.978;2022-11-15T06:40:07;11.05;;;5.80;;
27025;SDS011;14565;48.626;8.978;2022-11-15T06:42:34;10.10;;;6.27;;
27025;SDS011;14565;48.626;8.978;2022-11-15T06:45:00;9.65;;;4.72;;
27025;SDS011;14565;48.626;8.978;2022-11-15T06:47:26;5.63;;;3.42;;
27025;SDS011;14565;48.626;8.978;2022-11-15T06:49:52;15.07;;;9.00;;
27025;SDS011;14565;48.626;8.978;2022-11-15T06:52:18;5.75;;;4.00;;
27025;SDS011;14565;48.626;8.978;2022-11-15T06:54:44;7.47;;;2.67;;
27025;SDS011;14565;48.626;8.978;2022-11-15T06:57:10;5.93;;;3.35;;
27025;SDS011;14565;48.626;8.978;2022-11-15T06:59:36;6.28;;;2.83;;
27025;SDS011;14565;48.626;8.978;2022-11-15T07:02:02;7.22;;;3.72;;
27025;SDS011;14565;48.626;8.978;2022-11-15T07:04:28;36.83;;;17.95;;
27025;SDS011;14565;48.626;8.978;2022-11-15T07:06:53;43.75;;;20.90;;
27025;SDS011;14565;48.626;8.978;2022-11-15T07:09:19;10.93;;;5.80;;
27025;SDS011;14565;48.626;8.978;2022-11-15T07:11:45;11.18;;;6.93;;
27025;SDS011;14565;48.626;8.978;2022-11-15T07:14:10;17.23;;;9.52;;
27025;SDS011;14565;48.626;8.978;2022-11-15T07:16:36;15.95;;;8.07;;
27025;SDS011;14565;48.626;8.978;2022-11-15T07:19:02;8.40;;;6.07;;
27025;SDS011;14565;48.626;8.978;2022-11-15T07:21:28;9.55;;;5.32;;
27025;SDS011;14565;48.626;8.978;2022-11-15T07:23:54;9.02;;;5.55;;
27025;SDS011;14565;48.626;8.978;2022-11-15T07:26:20;7.47;;;5.63;;
27025;SDS011;14565;48.626;8.978;2022-11-15T07:28:45;7.38;;;5.53;;
27025;SDS011;14565;48.626;8.978;2022-11-15T07:31:11;6.57;;;4.20;;
27025;SDS011;14565;48.626;8.978;2022-11-15T07:33:37;8.27;;;4.53;;
27025;SDS011;14565;48.626;8.978;2022-11-15T07:36:03;7.03;;;4.10;;
27025;SDS011;14565;48.626;8.978;2022-11-15T07:38:31;7.15;;;4.32;;
27025;SDS011;14565;48.626;8.978;2022-11-15T07:40:58;6.43;;;4.18;;
27025;SDS011;14565;48.626;8.978;2022-11-15T07:43:25;7.05;;;3.65;;
27025;SDS011;14565;48.626;8.978;2022-11-15T07:45:52;5.07;;;3.58;;
27025;SDS011;14565;48.626;8.978;2022-11-15T07:48:18;7.32;;;3.50;;
27025;SDS011;14565;48.626;8.978;2022-11-15T07:50:44;8.80;;;3.38;;
27025;SDS011;14565;48.626;8.978;2022-11-15T07:53:10;5.30;;;3.40;;
27025;SDS011;14565;48.626;8.978;2022-11-15T07:55:36;6.57;;;3.30;;
27025;SDS011;14565;48.626;8.978;2022-11-15T08:00:31;7.78;;;2.88;;
27025;SDS011;14565;48.626;8.978;2022-11-15T08:03:04;4.07;;;2.42;;
27025;SDS011;14565;48.626;8.978;2022-11-15T08:05:35;7.05;;;3.55;;
27025;SDS011;14565;48.626;8.978;2022-11-15T08:08:01;6.67;;;4.03;;
27025;SDS011;14565;48.626;8.978;2022-11-15T08:10:27;17.10;;;7.90;;
27025;SDS011;14565;48.626;8.978;2022-11-15T08:13:06;21.30;;;10.23;;
27025;SDS011;14565;48.626;8.978;2022-11-15T08:15:34;19.90;;;8.90;;
27025;SDS011;14565;48.626;8.978;2022-11-15T08:18:02;17.13;;;8.18;;
27025;SDS011;14565;48.626;8.978;2022-11-15T08:20:30;18.48;;;7.95;;
27025;SDS011;14565;48.626;8.978;2022-11-15T08:22:57;11.70;;;6.57;;
27025;SDS011;14565;48.626;8.978;2022-11-15T08:25:23;17.00;;;6.97;;
27025;SDS011;14565;48.626;8.978;2022-11-15T08:27:53;11.02;;;5.63;;
27025;SDS011;14565;48.626;8.978;2022-11-15T08:30:20;17.70;;;5.70;;
27025;SDS011;14565;48.626;8.978;2022-11-15T08:32:46;8.73;;;4.65;;
27025;SDS011;14565;48.626;8.978;2022-11-15T08:35:12;8.15;;;4.28;;
27025;SDS011;14565;48.626;8.978;2022-11-15T08:37:38;10.00;;;5.38;;
27025;SDS011;14565;48.626;8.978;2022-11-15T08:40:04;7.32;;;4.55;;
27025;SDS011;14565;48.626;8.978;2022-11-15T08:42:30;7.22;;;4.30;;
27025;SDS011;14565;48.626;8.978;2022-11-15T08:44:56;5.60;;;3.30;;
27025;SDS011;14565;48.626;8.978;2022-11-15T08:47:22;6.53;;;3.15;;
27025;SDS011;14565;48.626;8.978;2022-11-15T08:49:47;12.73;;;5.28;;
27025;SDS011;14565;48.626;8.978;2022-11-15T08:52:13;18.98;;;7.22;;
27025;SDS011;14565;48.626;8.978;2022-11-15T08:54:39;34.22;;;12.45;;
27025;SDS011;14565;48.626;8.978;2022-11-15T08:57:05;15.80;;;7.07;;
27025;SDS011;14565;48.626;8.978;2022-11-15T08:59:31;17.15;;;7.00;;
27025;SDS011;14565;48.626;8.978;2022-11-15T09:01:57;13.52;;;6.03;;
27025;SDS011;14565;48.626;8.978;2022-11-15T09:04:22;13.25;;;6.85;;
27025;SDS011;14565;48.626;8.978;2022-11-15T09:06:51;4.00;;;2.47;;
27025;SDS011;14565;48.626;8.978;2022-11-15T09:09:17;17.40;;;5.82;;
27025;SDS011;14565;48.626;8.978;2022-11-15T09:11:49;6.13;;;2.92;;
27025;SDS011;14565;48.626;8.978;2022-11-15T09:14:15;6.57;;;2.50;;
27025;SDS011;14565;48.626;8.978;2022-11-15T09:16:41;2.95;;;1.65;;
27025;SDS011;14565;48.626;8.978;2022-11-15T09:19:07;3.55;;;1.42;;
27025;SDS011;14565;48.626;8.978;2022-11-15T09:21:32;3.80;;;1.80;;
27025;SDS011;14565;48.626;8.978;2022-11-15T09:23:58;3.40;;;1.60;;
27025;SDS011;14565;48.626;8.978;2022-11-15T09:26:24;3.15;;;1.70;;
27025;SDS011;14565;48.626;8.978;2022-11-15T09:28:50;6.18;;;1.70;;
27025;SDS011;14565;48.626;8.978;2022-11-15T09:31:15;3.50;;;2.00;;
27025;SDS011;14565;48.626;8.978;2022-11-15T09:33:44;3.92;;;1.40;;
27025;SDS011;14565;48.626;8.978;2022-11-15T09:36:11;2.20;;;1.60;;
27025;SDS011;14565;48.626;8.978;2022-11-15T09:38:37;8.23;;;4.20;;
27025;SDS011;14565;48.626;8.978;2022-11-15T09:48:56;1.67;;;0.93;;
27025;SDS011;14565;48.626;8.978;2022-11-15T09:51:37;4.45;;;1.80;;
27025;SDS011;14565;48.626;8.978;2022-11-15T09:54:30;2.70;;;1.05;;
27025;SDS011;14565;48.626;8.978;2022-11-15T09:57:02;3.20;;;1.30;;
27025;SDS011;14565;48.626;8.978;2022-11-15T09:59:53;4.00;;;1.42;;
27025;SDS011;14565;48.626;8.978;2022-11-15T10:02:42;1.98;;;1.30;;
27025;SDS011;14565;48.626;8.978;2022-11-15T10:05:43;1.67;;;1.25;;
27025;SDS011;14565;48.626;8.978;2022-11-15T10:10:55;3.03;;;1.60;;
27025;SDS011;14565;48.626;8.978;2022-11-15T10:13:33;2.72;;;1.60;;
27025;SDS011;14565;48.626;8.978;2022-11-15T10:16:45;4.10;;;1.95;;
27025;SDS011;14565;48.626;8.978;2022-11-15T10:24:28;7.70;;;2.90;;
27025;SDS011;14565;48.626;8.978;2022-11-15T10:26:59;4.55;;;1.55;;
27025;SDS011;14565;48.626;8.978;2022-11-15T10:29:25;6.43;;;2.17;;
27025;SDS011;14565;48.626;8.978;2022-11-15T10:31:51;3.10;;;1.75;;
27025;SDS011;14565;48.626;8.978;2022-11-15T10:34:18;5.50;;;1.52;;
27025;SDS011;14565;48.626;8.978;2022-11-15T10:36:46;4.68;;;2.90;;
27025;SDS011;14565;48.626;8.978;2022-11-15T10:39:23;2.72;;;1.40;;
27025;SDS011;14565;48.626;8.978;2022-11-15T10:41:49;4.22;;;1.40;;
27025;SDS011;14565;48.626;8.978;2022-11-15T10:49:28;4.32;;;1.90;;
27025;SDS011;14565;48.626;8.978;2022-11-15T10:51:56;5.70;;;2.72;;
27025;SDS011;14565;48.626;8.978;2022-11-15T10:54:37;3.80;;;2.20;;
27025;SDS011;14565;48.626;8.978;2022-11-15T10:57:14;4.35;;;1.75;;
27025;SDS011;14565;48.626;8.978;2022-11-15T11:02:41;3.25;;;1.50;;
27025;SDS011;14565;48.626;8.978;2022-11-15T11:05:30;5.03;;;1.52;;
27025;SDS011;14565;48.626;8.978;2022-11-15T11:08:00;5.18;;;2.35;;
27025;SDS011;14565;48.626;8.978;2022-11-15T11:10:27;7.50;;;3.30;;
27025;SDS011;14565;48.626;8.978;2022-11-15T11:12:53;6.03;;;2.60;;
27025;SDS011;14565;48.626;8.978;2022-11-15T11:15:19;6.40;;;3.20;;
27025;SDS011;14565;48.626;8.978;2022-11-15T11:20:41;4.10;;;1.77;;
27025;SDS011;14565;48.626;8.978;2022-11-15T11:28:48;1.83;;;1.10;;
27025;SDS011;14565;48.626;8.978;2022-11-15T11:34:29;4.38;;;1.60;;
27025;SDS011;14565;48.626;8.978;2022-11-15T11:45:03;6.45;;;2.78;;
27025;SDS011;14565;48.626;8.978;2022-11-15T11:50:26;3.30;;;1.50;;
27025;SDS011;14565;48.626;8.978;2022-11-15T11:55:26;3.22;;;1.25;;
27025;SDS011;14565;48.626;8.978;2022-11-15T12:00:49;3.65;;;1.85;;
27025;SDS011;14565;48.626;8.978;2022-11-15T12:06:09;6.57;;;2.55;;
27025;SDS011;14565;48.626;8.978;2022-11-15T12:12:17;4.45;;;1.52;;
27025;SDS011;14565;48.626;8.978;2022-11-15T12:17:35;4.00;;;1.65;;
27025;SDS011;14565;48.626;8.978;2022-11-15T12:20:04;9.02;;;3.55;;
27025;SDS011;14565;48.626;8.978;2022-11-15T12:22:56;4.03;;;2.05;;
27025;SDS011;14565;48.626;8.978;2022-11-15T12:25:24;3.47;;;1.45;;
27025;SDS011;14565;48.626;8.978;2022-11-15T12:28:18;3.42;;;1.63;;
27025;SDS011;14565;48.626;8.978;2022-11-15T12:30:46;5.00;;;1.48;;
27025;SDS011;14565;48.626;8.978;2022-11-15T12:36:00;1.88;;;1.30;;
27025;SDS011;14565;48.626;8.978;2022-11-15T12:41:15;2.15;;;1.27;;
27025;SDS011;14565;48.626;8.978;2022-11-15T12:43:43;3.67;;;1.25;;
27025;SDS011;14565;48.626;8.978;2022-11-15T13:02:18;2.22;;;1.20;;
27025;SDS011;14565;48.626;8.978;2022-11-15T13:04:49;2.65;;;1.40;;
27025;SDS011;14565;48.626;8.978;2022-11-15T13:10:01;2.90;;;1.75;;
27025;SDS011;14565;48.626;8.978;2022-11-15T13:17:50;2.22;;;1.40;;
27025;SDS011;14565;48.626;8.978;2022-11-15T13:22:51;2.25;;;1.50;;
27025;SDS011;14565;48.626;8.978;2022-11-15T13:30:39;4.53;;;1.50;;
27025;SDS011;14565;48.626;8.978;2022-11-15T13:33:15;7.45;;;1.95;;
27025;SDS011;14565;48.626;8.978;2022-11-15T13:35:53;4.63;;;2.03;;
27025;SDS011;14565;48.626;8.978;2022-11-15T13:40:50;3.70;;;2.00;;
27025;SDS011;14565;48.626;8.978;2022-11-15T13:48:58;2.58;;;1.88;;
27025;SDS011;14565;48.626;8.978;2022-11-15T13:56:40;4.90;;;1.83;;
27025;SDS011;14565;48.626;8.978;2022-11-15T13:59:15;4.15;;;2.00;;
27025;SDS011;14565;48.626;8.978;2022-11-15T14:01:54;4.18;;;2.42;;
27025;SDS011;14565;48.626;8.978;2022-11-15T14:04:21;2.97;;;1.87;;
27025;SDS011;14565;48.626;8.978;2022-11-15T14:06:54;3.42;;;2.00;;
27025;SDS011;14565;48.626;8.978;2022-11-15T14:09:38;2.92;;;1.70;;
27025;SDS011;14565;48.626;8.978;2022-11-15T14:14:55;2.25;;;1.50;;
27025;SDS011;14565;48.626;8.978;2022-11-15T14:19:53;2.50;;;1.80;;
27025;SDS011;14565;48.626;8.978;2022-11-15T14:22:23;3.90;;;2.17;;
27025;SDS011;14565;48.626;8.978;2022-11-15T14:27:41;6.93;;;2.70;;
27025;SDS011;14565;48.626;8.978;2022-11-15T14:30:15;7.35;;;3.28;;
27025;SDS011;14565;48.626;8.978;2022-11-15T14:32:48;4.00;;;2.13;;
27025;SDS011;14565;48.626;8.978;2022-11-15T14:35:16;2.95;;;1.77;;
27025;SDS011;14565;48.626;8.978;2022-11-15T14:37:44;4.18;;;1.80;;
27025;SDS011;14565;48.626;8.978;2022-11-15T14:40:12;2.75;;;1.88;;
27025;SDS011;14565;48.626;8.978;2022-11-15T14:42:39;2.30;;;1.70;;
27025;SDS011;14565;48.626;8.978;2022-11-15T14:45:19;3.28;;;1.45;;
27025;SDS011;14565;48.626;8.978;2022-11-15T14:47:45;2.97;;;1.42;;
27025;SDS011;14565;48.626;8.978;2022-11-15T14:50:15;3.90;;;1.35;;
27025;SDS011;14565;48.626;8.978;2022-11-15T14:52:43;1.63;;;1.10;;
27025;SDS011;14565;48.626;8.978;2022-11-15T14:55:29;2.42;;;0.98;;
27025;SDS011;14565;48.626;8.978;2022-11-15T14:58:01;3.67;;;1.10;;
27025;SDS011;14565;48.626;8.978;2022-11-15T15:00:28;1.60;;;0.97;;
27025;SDS011;14565;48.626;8.978;2022-11-15T15:02:55;2.55;;;1.00;;
27025;SDS011;14565;48.626;8.978;2022-11-15T15:05:25;3.00;;;1.27;;
27025;SDS011;14565;48.626;8.978;2022-11-15T15:08:02;2.10;;;1.10;;
27025;SDS011;14565;48.626;8.978;2022-11-15T15:10:34;1.88;;;1.30;;
27025;SDS011;14565;48.626;8.978;2022-11-15T15:13:01;4.35;;;1.90;;
27025;SDS011;14565;48.626;8.978;2022-11-15T15:15:35;2.35;;;1.17;;
27025;SDS011;14565;48.626;8.978;2022-11-15T15:18:02;2.53;;;1.40;;
27025;SDS011;14565;48.626;8.978;2022-11-15T15:20:30;4.22;;;2.45;;
27025;SDS011;14565;48.626;8.978;2022-11-15T15:22:56;6.60;;;3.00;;
27025;SDS011;14565;48.626;8.978;2022-11-15T15:27:54;16.80;;;9.77;;
27025;SDS011;14565;48.626;8.978;2022-11-15T15:30:20;4.55;;;2.70;;
27025;SDS011;14565;48.626;8.978;2022-11-15T15:32:50;3.50;;;1.67;;
27025;SDS011;14565;48.626;8.978;2022-11-15T15:35:16;3.45;;;1.50;;
27025;SDS011;14565;48.626;8.978;2022-11-15T15:37:43;5.70;;;4.90;;
27025;SDS011;14565;48.626;8.978;2022-11-15T15:40:19;4.57;;;1.80;;
27025;SDS011;14565;48.626;8.978;2022-11-15T15:42:47;3.90;;;2.20;;
27025;SDS011;14565;48.626;8.978;2022-11-15T15:45:13;3.58;;;1.58;;
27025;SDS011;14565;48.626;8.978;2022-11-15T15:47:40;5.07;;;1.83;;
27025;SDS011;14565;48.626;8.978;2022-11-15T15:52:48;2.70;;;1.80;;
27025;SDS011;14565;48.626;8.978;2022-11-15T15:55:18;2.40;;;2.03;;
27025;SDS011;14565;48.626;8.978;2022-11-15T15:57:51;5.90;;;3.03;;
27025;SDS011;14565;48.626;8.978;2022-11-15T16:00:17;3.08;;;1.85;;
27025;SDS011;14565;48.626;8.978;2022-11-15T16:02:44;3.47;;;1.77;;
27025;SDS011;14565;48.626;8.978;2022-11-15T16:05:10;3.63;;;2.08;;
27025;SDS011;14565;48.626;8.978;2022-11-15T16:07:37;5.10;;;2.40;;
27025;SDS011;14565;48.626;8.978;2022-11-15T16:10:09;3.65;;;1.95;;
27025;SDS011;14565;48.626;8.978;2022-11-15T16:12:49;6.20;;;3.10;;
27025;SDS011;14565;48.626;8.978;2022-11-15T16:15:16;5.13;;;2.70;;
27025;SDS011;14565;48.626;8.978;2022-11-15T16:17:47;5.47;;;2.80;;
27025;SDS011;14565;48.626;8.978;2022-11-15T16:20:32;4.50;;;1.92;;
27025;SDS011;14565;48.626;8.978;2022-11-15T16:23:13;2.30;;;1.63;;
27025;SDS011;14565;48.626;8.978;2022-11-15T16:31:10;3.42;;;1.40;;
27025;SDS011;14565;48.626;8.978;2022-11-15T16:33:37;4.28;;;1.95;;
27025;SDS011;14565;48.626;8.978;2022-11-15T16:36:04;5.70;;;1.95;;
27025;SDS011;14565;48.626;8.978;2022-11-15T16:38:30;4.97;;;2.53;;
27025;SDS011;14565;48.626;8.978;2022-11-15T16:40:56;6.93;;;2.47;;
27025;SDS011;14565;48.626;8.978;2022-11-15T16:43:22;10.85;;;5.80;;
27025;SDS011;14565;48.626;8.978;2022-11-15T16:45:48;11.13;;;5.47;;
27025;SDS011;14565;48.626;8.978;2022-11-15T16:48:19;10.18;;;5.88;;
27025;SDS011;14565;48.626;8.978;2022-11-15T16:50:50;12.05;;;4.95;;
27025;SDS011;14565;48.626;8.978;2022-11-15T16:53:23;8.75;;;4.85;;
27025;SDS011;14565;48.626;8.978;2022-11-15T16:55:53;27.30;;;12.80;;
27025;SDS011;14565;48.626;8.978;2022-11-15T16:58:19;26.70;;;13.45;;
27025;SDS011;14565;48.626;8.978;2022-11-15T17:00:45;22.25;;;11.10;;
27025;SDS011;14565;48.626;8.978;2022-11-15T17:03:16;20.23;;;10.55;;
27025;SDS011;14565;48.626;8.978;2022-11-15T17:05:42;19.42;;;9.93;;
27025;SDS011;14565;48.626;8.978;2022-11-15T17:08:07;16.63;;;8.52;;
27025;SDS011;14565;48.626;8.978;2022-11-15T17:10:33;5.53;;;3.28;;
27025;SDS011;14565;48.626;8.978;2022-11-15T17:12:58;3.83;;;2.70;;
27025;SDS011;14565;48.626;8.978;2022-11-15T17:15:24;4.07;;;2.15;;
27025;SDS011;14565;48.626;8.978;2022-11-15T17:17:50;3.47;;;2.60;;
27025;SDS011;14565;48.626;8.978;2022-11-15T17:20:17;4.32;;;2.88;;
27025;SDS011;14565;48.626;8.978;2022-11-15T17:22:45;4.93;;;3.10;;
27025;SDS011;14565;48.626;8.978;2022-11-15T17:25:11;7.78;;;5.20;;
27025;SDS011;14565;48.626;8.978;2022-11-15T17:27:37;8.40;;;5.32;;
27025;SDS011;14565;48.626;8.978;2022-11-15T17:30:03;8.02;;;4.32;;
27025;SDS011;14565;48.626;8.978;2022-11-15T17:32:29;7.20;;;5.43;;
27025;SDS011;14565;48.626;8.978;2022-11-15T17:34:54;6.65;;;4.57;;
27025;SDS011;14565;48.626;8.978;2022-11-15T17:37:20;9.75;;;6.15;;
27025;SDS011;14565;48.626;8.978;2022-11-15T17:39:46;13.93;;;9.30;;
27025;SDS011;14565;48.626;8.978;2022-11-15T17:42:12;10.88;;;6.90;;
27025;SDS011;14565;48.626;8.978;2022-11-15T17:44:37;8.32;;;6.10;;
27025;SDS011;14565;48.626;8.978;2022-11-15T17:47:03;6.18;;;4.72;;
27025;SDS011;14565;48.626;8.978;2022-11-15T17:49:29;12.13;;;6.05;;
27025;SDS011;14565;48.626;8.978;2022-11-15T17:51:54;8.63;;;5.78;;
27025;SDS011;14565;48.626;8.978;2022-11-15T17:54:20;8.93;;;6.32;;